Kingussie, United Kingdom
Current Conditions -  °F | °C
As of 12:20 AM on Saturday 20 Dec 2014 (Local Time) from EGPE Reporting Station
Rain Showers Rain Showers  
Wind Chill: 32°   Ceiling: Unl
Heat Index: 41°   Visibility: 6mi
Dew Point: 34°   Wind: 21mph
Humidity: 76%   Direction: 270°W
Pressure: 29.65"   Gusts: NA
Location:  57.08°N, 4.05°W
Report Text: EGPE 200020Z AUTO 27018KT 240V300 9999 VCSH FEW015CB SCT030/// 05/01 Q1004
Loading
Personal Weather Stations






























Interactive Weather Map New forecast layout! Learn more

10-Day Weather Forecast

Advertisements
Track Severe Weather on mobile